Lefor, ND (58641)

11:34 PM MDT on September 04, 2015 (GMT -0600)
Southview | | Change Station
CLOSE
Current Station
Personal Weather Station
Location: Dickinson, ND
Elevation: 2434 ft
Nearby Weather Stations

Elev 2434 ft 46.86 °N, 102.78 °W | Updated 12 minutes ago

Overcast
Overcast
59.9 °F
Feels Like 59.9 °F
N
8.3
Wind Variable Wind from NE

Today
High -- | Low -- °F
--% Chance of Precip.
Yesterday
High -- | Low -- °F
Precip. -- in
6:14 AM 7:24 PM
Waning Gibbous, 52% visible
Pressure 29.86 in
Visibility 4.0 miles
Clouds Overcast 400 ft
Dew Point 59 °F
Humidity 96%
Rainfall in
Snow Depth Not available.
UV 0 out of 12
Pollen 10.20 out of 12
Air Quality Not available.
Flu Activity Not available.
SPECI KDIK 050514Z AUTO 05012KT 4SM BR OVC004 17/16 A2986 RMK AO2 T01670156
Pressure 29.86 in
Visibility 4.0 miles
Clouds Overcast 400 ft
Dew Point 59 °F
Humidity 96%
Rainfall in
Snow Depth Not available.
UV 0 out of 12
Pollen 10.20 out of 12
Air Quality Not available.
Flu Activity Not available.
SPECI KDIK 050514Z AUTO 05012KT 4SM BR OVC004 17/16 A2986 RMK AO2 T01670156

10-Day Weather Forecast

×

Almanac

Astronomy

Sep. 04, 2015 Rise Set
Actual Time
Civil Twilight
Nautical Twilight
Astronomical Twilight
Moon
Length of Visible Light
Length of Day
Tomorrow will be .
, % of the Moon is Illuminated

Today's Extremes

State Highs State Lows

Community

WunderPhotos

Upload Photos

1,852,426 photos uploaded!

WunderBlogs® & News

Nearby

Air Quality

  Air Quality AQ Index Pollutant
Not available.

Snow Depth

Station Depth Elevation

Earthquake Activity

City Distance Mag. Time & Date
Minimum magnitude displayed is 2.5.

Coastal Water Temperatures

Place Temperature

Stations

Nearby Weather Stations

Station Location Temp. Windchill Dew Point Humidity Wind Precip. Elev Updated Type